createdAt,value
2019-05-03T00:00:05.160Z,27.30
2019-05-03T00:02:41.678Z,27.60
2019-05-03T00:05:26.367Z,27.40
2019-05-03T00:07:55.223Z,27.40
2019-05-03T00:10:22.865Z,27.50
2019-05-03T00:12:50.423Z,27.50
2019-05-03T00:15:21.537Z,27.60
2019-05-03T00:17:48.933Z,28.10
2019-05-03T00:20:16.546Z,27.40
2019-05-03T00:22:44.140Z,27.80
2019-05-03T00:25:12.849Z,27.60
2019-05-03T00:27:42.621Z,27.60
2019-05-03T00:30:11.884Z,27.70
2019-05-03T00:32:39.356Z,27.90
2019-05-03T00:35:14.299Z,27.80
2019-05-03T00:37:48.977Z,27.70
2019-05-03T00:40:18.204Z,27.80
2019-05-03T00:42:45.766Z,28.00
2019-05-03T00:45:13.346Z,27.90
2019-05-03T00:47:42.129Z,28.00
2019-05-03T00:50:11.909Z,28.10
2019-05-03T00:52:39.187Z,28.30
2019-05-03T00:55:16.060Z,28.10
2019-05-03T00:57:36.128Z,28.10
2019-05-03T01:00:05.165Z,28.20
2019-05-03T01:02:32.860Z,28.10
2019-05-03T01:05:02.646Z,28.20
2019-05-03T01:07:31.648Z,28.50
2019-05-03T01:09:59.091Z,28.50
2019-05-03T01:12:26.677Z,28.60
2019-05-03T01:14:55.597Z,28.50
2019-05-03T01:17:23.185Z,28.50
2019-05-03T01:19:52.187Z,28.40
2019-05-03T01:22:19.939Z,28.40
2019-05-03T01:24:47.497Z,28.70
2019-05-03T01:27:15.122Z,28.80
2019-05-03T01:29:42.669Z,28.80
2019-05-03T01:32:11.557Z,28.80
2019-05-03T01:34:41.519Z,28.90
2019-05-03T01:37:08.678Z,29.20
2019-05-03T01:39:36.277Z,29.10
2019-05-03T01:42:03.905Z,29.10
2019-05-03T01:44:32.688Z,29.20
2019-05-03T01:47:02.301Z,29.10
2019-05-03T01:49:32.077Z,29.10
2019-05-03T01:52:13.460Z,29.10
2019-05-03T01:54:42.700Z,29.10
2019-05-03T01:57:11.611Z,29.10
2019-05-03T01:59:39.359Z,28.80
2019-05-03T02:02:14.298Z,29.30
2019-05-03T02:05:00.143Z,29.10
2019-05-03T02:07:27.742Z,29.00
2019-05-03T02:09:55.287Z,29.10
2019-05-03T02:12:22.899Z,29.10
2019-05-03T02:14:51.689Z,29.00
2019-05-03T02:17:19.474Z,29.00
2019-05-03T02:19:47.029Z,28.90
2019-05-03T02:22:14.629Z,29.10
2019-05-03T02:24:42.397Z,29.10
2019-05-03T02:27:10.199Z,29.00
2019-05-03T02:29:37.759Z,29.10
2019-05-03T02:32:05.350Z,29.10
2019-05-03T02:34:32.981Z,29.10
2019-05-03T02:37:02.937Z,29.10
2019-05-03T02:39:29.934Z,29.10
2019-05-03T02:42:05.350Z,29.10
2019-05-03T02:44:26.879Z,29.10
2019-05-03T02:46:57.998Z,29.10
2019-05-03T02:49:27.207Z,29.00
2019-05-03T02:51:55.494Z,29.00
2019-05-03T02:54:26.476Z,29.00
2019-05-03T02:56:52.606Z,29.00
2019-05-03T02:59:20.223Z,29.10
2019-05-03T03:01:47.901Z,29.00
2019-05-03T03:04:16.013Z,29.10
2019-05-03T03:06:45.465Z,29.10
2019-05-03T03:09:16.241Z,29.00
2019-05-03T03:11:42.350Z,29.10
2019-05-03T03:14:11.186Z,29.10
2019-05-03T03:16:39.067Z,29.00
2019-05-03T03:19:07.128Z,29.00
2019-05-03T03:21:36.452Z,29.00
2019-05-03T03:24:08.694Z,29.10
2019-05-03T03:26:41.616Z,29.10
2019-05-03T03:29:06.834Z,29.00
2019-05-03T03:31:37.964Z,29.10
2019-05-03T03:34:08.510Z,29.00
2019-05-03T03:36:57.976Z,29.00
2019-05-03T03:39:07.266Z,29.00
2019-05-03T03:41:35.389Z,29.00
2019-05-03T03:44:05.635Z,29.00
2019-05-03T03:46:32.474Z,29.00
2019-05-03T03:49:00.056Z,29.00
2019-05-03T03:51:27.636Z,29.00
2019-05-03T03:53:55.672Z,29.00
2019-05-03T03:56:25.539Z,29.00
2019-05-03T03:58:55.384Z,29.00
2019-05-03T04:01:22.078Z,29.40
2019-05-03T04:03:49.645Z,29.00
2019-05-03T04:06:17.261Z,29.00
2019-05-03T04:08:45.396Z,29.00
2019-05-03T04:11:15.427Z,29.00
2019-05-03T04:13:45.164Z,29.00
2019-05-03T04:16:20.361Z,29.00
2019-05-03T04:18:55.117Z,29.00
2019-05-03T04:21:25.273Z,29.00
2019-05-03T04:23:52.236Z,29.00
2019-05-03T04:26:19.847Z,29.00
2019-05-03T04:28:47.405Z,29.00
2019-05-03T04:31:15.339Z,29.00
2019-05-03T04:33:45.066Z,29.00
2019-05-03T04:36:12.374Z,29.00
2019-05-03T04:38:39.970Z,29.00
2019-05-03T04:41:07.549Z,28.50
2019-05-03T04:43:35.725Z,29.00
2019-05-03T04:46:06.540Z,29.00
2019-05-03T04:48:35.846Z,29.00
2019-05-03T04:51:05.921Z,29.00
2019-05-03T04:53:35.746Z,29.00
2019-05-03T04:56:05.833Z,29.00
2019-05-03T04:58:33.001Z,29.00
2019-05-03T05:01:00.656Z,28.90
2019-05-03T05:03:28.260Z,29.00
2019-05-03T05:05:59.774Z,29.00
2019-05-03T05:08:27.422Z,29.00
2019-05-03T05:10:55.909Z,29.00
2019-05-03T05:13:25.056Z,29.00
2019-05-03T05:15:55.040Z,29.00
2019-05-03T05:18:29.394Z,29.00
2019-05-03T05:20:58.636Z,29.00
2019-05-03T05:23:59.596Z,29.00
2019-05-03T05:26:28.876Z,29.00
2019-05-03T05:28:58.120Z,29.00
2019-05-03T05:31:25.714Z,29.00
2019-05-03T05:33:54.536Z,29.10
2019-05-03T05:36:22.145Z,29.00
2019-05-03T05:38:49.694Z,29.10
2019-05-03T05:41:17.308Z,29.10
2019-05-03T05:43:44.922Z,29.10
2019-05-03T05:46:14.506Z,29.10
2019-05-03T05:48:46.392Z,29.10
2019-05-03T05:51:15.946Z,29.10
2019-05-03T05:53:44.748Z,29.10
2019-05-03T05:56:24.958Z,29.10
2019-05-03T05:59:08.977Z,29.20
2019-05-03T06:01:56.567Z,29.10
2019-05-03T06:04:24.610Z,29.10
2019-05-03T06:07:09.291Z,29.10
2019-05-03T06:09:41.415Z,29.10
2019-05-03T06:12:10.626Z,29.20
2019-05-03T06:14:42.808Z,29.20
2019-05-03T06:17:12.038Z,29.30
2019-05-03T06:19:41.243Z,29.30
2019-05-03T06:22:10.512Z,29.30
2019-05-03T06:24:39.740Z,29.50
2019-05-03T06:27:15.298Z,29.30
2019-05-03T06:29:45.378Z,29.30
2019-05-03T06:32:20.602Z,29.30
2019-05-03T06:34:48.166Z,29.30
2019-05-03T06:37:17.387Z,29.30
2019-05-03T06:39:45.500Z,29.30
2019-05-03T06:42:17.532Z,29.30
2019-05-03T06:44:42.657Z,29.30
2019-05-03T06:47:10.596Z,29.20
2019-05-03T06:49:39.215Z,29.20
2019-05-03T06:52:07.653Z,29.10
2019-05-03T06:54:37.686Z,29.10
2019-05-03T06:57:09.533Z,29.10
2019-05-03T06:59:45.045Z,29.10
2019-05-03T07:02:19.905Z,29.10
2019-05-03T07:04:56.207Z,29.10
2019-05-03T07:07:35.435Z,29.10
2019-05-03T07:13:00.716Z,29.10
2019-05-03T07:15:28.325Z,29.30
2019-05-03T07:17:55.931Z,29.10
2019-05-03T07:20:25.281Z,29.10
2019-05-03T07:22:55.535Z,29.10
2019-05-03T07:25:25.310Z,29.00
2019-05-03T07:27:52.351Z,29.10
2019-05-03T07:30:19.911Z,29.20
2019-05-03T07:32:49.163Z,29.10
2019-05-03T07:35:36.161Z,29.10
2019-05-03T07:38:05.442Z,29.10
2019-05-03T07:40:35.223Z,29.10
2019-05-03T07:43:04.432Z,29.10
2019-05-03T07:45:31.893Z,29.10
2019-05-03T07:47:59.505Z,29.10
2019-05-03T07:50:27.083Z,29.10
2019-05-03T07:52:55.556Z,29.10
2019-05-03T07:55:25.264Z,29.10
2019-05-03T07:57:55.472Z,29.10
2019-05-03T08:00:25.504Z,29.10
2019-05-03T08:02:54.935Z,29.10
2019-05-03T08:05:24.559Z,29.10
2019-05-03T08:07:51.988Z,29.00
2019-05-03T08:10:19.594Z,29.00
2019-05-03T08:12:47.219Z,28.90
2019-05-03T08:15:15.745Z,28.30
2019-05-03T08:17:45.014Z,28.80
2019-05-03T08:20:14.393Z,29.00
2019-05-03T08:22:42.202Z,29.10
2019-05-03T08:25:09.883Z,29.10
2019-05-03T08:27:37.526Z,29.10
2019-05-03T08:30:06.977Z,29.10
2019-05-03T08:32:39.326Z,29.10
2019-05-03T08:35:15.278Z,29.00
2019-05-03T08:37:56.996Z,29.10
2019-05-03T08:40:26.238Z,29.70
2019-05-03T08:42:54.983Z,29.00
2019-05-03T08:45:22.795Z,29.20
2019-05-03T08:47:50.365Z,29.20
2019-05-03T08:50:21.388Z,29.30
2019-05-03T08:52:47.289Z,29.20
2019-05-03T08:55:15.882Z,29.30
2019-05-03T08:57:44.822Z,29.30
2019-05-03T09:00:14.552Z,29.30
2019-05-03T09:02:42.283Z,29.30
2019-05-03T09:05:09.876Z,29.30
2019-05-03T09:07:37.585Z,29.30
2019-05-03T09:10:20.662Z,29.30
2019-05-03T09:13:08.038Z,29.30
2019-05-03T09:15:36.189Z,28.60
2019-05-03T09:18:04.789Z,29.20
2019-05-03T09:20:33.006Z,28.20
2019-05-03T09:23:00.607Z,29.10
2019-05-03T09:25:28.297Z,29.30
2019-05-03T09:27:55.968Z,28.90
2019-05-03T09:30:25.109Z,29.30
2019-05-03T09:32:52.909Z,29.20
2019-05-03T09:35:29.698Z,29.20
2019-05-03T09:37:49.848Z,29.20
2019-05-03T09:40:17.459Z,29.20
2019-05-03T09:42:45.092Z,28.40
2019-05-03T09:45:12.701Z,28.50
2019-05-03T09:47:40.258Z,28.30
2019-05-03T09:50:07.867Z,28.30
2019-05-03T09:52:35.636Z,28.20
2019-05-03T09:55:05.727Z,28.80
2019-05-03T09:57:34.733Z,27.30
2019-05-03T10:00:04.918Z,27.10
2019-05-03T10:02:32.349Z,27.70
2019-05-03T10:04:59.969Z,27.40
2019-05-03T10:07:27.554Z,28.40
2019-05-03T10:09:55.488Z,28.10
2019-05-03T10:12:25.504Z,27.60
2019-05-03T10:14:54.851Z,27.70
2019-05-03T10:17:27.026Z,27.50
2019-05-03T10:19:54.778Z,27.50
2019-05-03T10:22:25.253Z,27.30
2019-05-03T10:24:54.927Z,27.90
2019-05-03T10:27:22.348Z,28.20
2019-05-03T10:29:49.922Z,27.60
2019-05-03T10:32:28.304Z,27.20
2019-05-03T10:34:57.552Z,27.80
2019-05-03T10:37:35.845Z,27.20
2019-05-03T10:40:07.766Z,27.70
2019-05-03T10:42:35.276Z,28.00
2019-05-03T10:45:04.674Z,27.60
2019-05-03T10:47:32.391Z,27.40
2019-05-03T10:49:59.972Z,26.60
2019-05-03T10:52:29.194Z,26.80
2019-05-03T10:54:56.854Z,26.80
2019-05-03T10:57:26.085Z,27.30
2019-05-03T10:59:55.495Z,27.00
2019-05-03T11:02:27.782Z,27.50
2019-05-03T11:04:55.378Z,26.60
2019-05-03T11:07:22.922Z,26.70
2019-05-03T11:09:52.503Z,26.80
2019-05-03T11:12:19.812Z,26.50
2019-05-03T11:14:47.413Z,26.90
2019-05-03T11:17:15.090Z,26.40
2019-05-03T11:19:42.678Z,26.60
2019-05-03T11:22:10.267Z,26.30
2019-05-03T11:24:37.865Z,27.10
2019-05-03T11:27:07.173Z,26.90
2019-05-03T11:29:35.578Z,27.80
2019-05-03T11:32:09.480Z,27.00
2019-05-03T11:34:35.977Z,27.30
2019-05-03T11:37:20.466Z,26.80
2019-05-03T11:39:48.095Z,26.80
2019-05-03T11:42:18.466Z,26.50
2019-05-03T11:44:44.956Z,26.20
2019-05-03T11:47:14.885Z,25.90
2019-05-03T11:49:41.887Z,26.30
2019-05-03T11:52:09.550Z,26.30
2019-05-03T11:54:37.111Z,26.20
2019-05-03T11:57:06.385Z,26.30
2019-05-03T11:59:34.478Z,26.20
2019-05-03T12:02:12.604Z,26.00
2019-05-03T12:04:40.255Z,25.50
2019-05-03T12:07:07.898Z,26.00
2019-05-03T12:09:35.450Z,25.70
2019-05-03T12:12:04.935Z,25.20
2019-05-03T12:14:32.807Z,25.90
2019-05-03T12:17:25.587Z,25.70
2019-05-03T12:19:33.647Z,25.70
2019-05-03T12:22:02.655Z,25.60
2019-05-03T12:24:31.623Z,25.40
2019-05-03T12:26:59.664Z,25.30
2019-05-03T12:29:27.241Z,25.40
2019-05-03T12:31:54.931Z,25.00
2019-05-03T12:34:22.598Z,25.20
2019-05-03T12:36:51.504Z,24.90
2019-05-03T12:39:26.843Z,25.20
2019-05-03T12:41:48.769Z,24.50
2019-05-03T12:44:16.322Z,24.60
2019-05-03T12:46:45.028Z,24.60
2019-05-03T12:49:12.859Z,25.10
2019-05-03T12:51:40.421Z,24.40
2019-05-03T12:54:07.984Z,24.50
2019-05-03T12:56:35.922Z,24.50
2019-05-03T12:59:07.976Z,24.50
2019-05-03T13:01:45.119Z,24.50
2019-05-03T13:04:24.845Z,24.50
2019-05-03T13:07:06.171Z,24.40
2019-05-03T13:09:35.604Z,24.70
2019-05-03T13:12:05.413Z,24.80
2019-05-03T13:14:34.503Z,24.50
2019-05-03T13:17:01.716Z,25.20
2019-05-03T13:19:29.357Z,24.90
2019-05-03T13:21:56.977Z,24.50
2019-05-03T13:24:25.996Z,24.40
2019-05-03T13:26:53.875Z,24.60
2019-05-03T13:29:21.450Z,24.40
2019-05-03T13:32:01.212Z,24.40
2019-05-03T13:34:18.381Z,24.60
2019-05-03T13:36:46.047Z,24.60
2019-05-03T13:39:14.638Z,24.80
2019-05-03T13:41:42.611Z,24.40
2019-05-03T13:44:10.225Z,24.40
2019-05-03T13:46:37.825Z,24.40
2019-05-03T13:49:26.414Z,24.40
2019-05-03T13:51:54.280Z,24.60
2019-05-03T13:54:21.889Z,24.50
2019-05-03T13:56:49.537Z,24.50
2019-05-03T13:59:19.882Z,24.50
2019-05-03T14:01:46.498Z,24.40
2019-05-03T14:04:14.767Z,24.40
2019-05-03T14:06:44.540Z,24.40
2019-05-03T14:09:11.875Z,24.40
2019-05-03T14:11:39.485Z,24.40
2019-05-03T14:14:07.138Z,24.40
2019-05-03T14:16:34.837Z,24.40
2019-05-03T14:19:05.253Z,24.40
2019-05-03T14:21:34.708Z,24.40
2019-05-03T14:24:12.218Z,24.50
2019-05-03T14:26:40.290Z,24.30
2019-05-03T14:29:08.035Z,24.50
2019-05-03T14:31:35.689Z,24.50
2019-05-03T14:34:05.744Z,25.10
2019-05-03T14:36:32.627Z,24.40
2019-05-03T14:39:00.242Z,24.40
2019-05-03T14:41:27.845Z,24.40
2019-05-03T14:43:55.836Z,24.40
2019-05-03T14:46:32.805Z,24.40
2019-05-03T14:48:54.858Z,24.40
2019-05-03T14:51:22.142Z,24.40
2019-05-03T14:53:49.807Z,24.40
2019-05-03T14:56:25.391Z,24.40
2019-05-03T14:59:03.895Z,24.30
2019-05-03T15:01:34.742Z,24.30
2019-05-03T15:04:02.463Z,24.30
2019-05-03T15:06:30.033Z,24.40
2019-05-03T15:08:57.634Z,24.40
2019-05-03T15:11:25.234Z,24.30
2019-05-03T15:13:54.916Z,24.30
2019-05-03T15:16:22.128Z,24.40
2019-05-03T15:18:49.691Z,24.40
2019-05-03T15:21:17.363Z,24.30
2019-05-03T15:23:45.338Z,24.30
2019-05-03T15:26:13.080Z,24.30
2019-05-03T15:28:40.655Z,24.30
2019-05-03T15:31:08.249Z,24.30
2019-05-03T15:33:35.931Z,24.30
2019-05-03T15:36:04.768Z,24.30
2019-05-03T15:38:34.431Z,24.40
2019-05-03T15:41:01.852Z,24.30
2019-05-03T15:43:31.092Z,24.30
2019-05-03T15:46:00.336Z,24.30
2019-05-03T15:48:29.540Z,24.30
2019-05-03T15:50:57.220Z,24.30
2019-05-03T15:53:32.240Z,24.30
2019-05-03T15:55:59.855Z,24.30
2019-05-03T15:58:27.450Z,24.30
2019-05-03T16:00:55.525Z,24.40
2019-05-03T16:03:25.044Z,24.40
2019-05-03T16:05:52.692Z,24.40
2019-05-03T16:08:20.278Z,24.40
2019-05-03T16:10:47.872Z,24.40
2019-05-03T16:13:15.488Z,24.40
2019-05-03T16:15:44.536Z,24.40
2019-05-03T16:18:14.668Z,24.40
2019-05-03T16:20:41.828Z,24.40
2019-05-03T16:23:09.416Z,24.40
2019-05-03T16:25:37.184Z,25.00
2019-05-03T16:28:09.033Z,24.40
2019-05-03T16:30:38.276Z,25.00
2019-05-03T16:33:06.034Z,24.40
2019-05-03T16:35:34.936Z,24.40
2019-05-03T16:38:02.987Z,24.60
2019-05-03T16:40:30.707Z,24.60
2019-05-03T16:42:58.322Z,24.60
2019-05-03T16:45:27.522Z,24.50
2019-05-03T16:47:55.110Z,24.60
2019-05-03T16:50:22.720Z,24.50
2019-05-03T16:52:50.320Z,24.50
2019-05-03T16:55:17.922Z,24.50
2019-05-03T16:57:45.498Z,24.50
2019-05-03T17:00:15.339Z,24.50
2019-05-03T17:02:44.247Z,24.50
2019-05-03T17:05:25.716Z,24.60
2019-05-03T17:07:54.936Z,25.30
2019-05-03T17:10:29.999Z,25.20
2019-05-03T17:12:57.566Z,25.50
2019-05-03T17:15:25.157Z,24.60
2019-05-03T17:17:52.764Z,24.60
2019-05-03T17:20:20.360Z,24.60
2019-05-03T17:22:47.926Z,24.90
2019-05-03T17:25:15.536Z,24.60
2019-05-03T17:27:44.844Z,25.70
2019-05-03T17:30:12.595Z,26.00
2019-05-03T17:32:40.150Z,26.30
2019-05-03T17:35:07.746Z,26.80
2019-05-03T17:37:35.341Z,26.30
2019-05-03T17:40:21.253Z,26.50
2019-05-03T17:42:50.496Z,26.90
2019-05-03T17:45:19.714Z,27.10
2019-05-03T17:47:47.315Z,27.20
2019-05-03T17:50:15.018Z,27.00
2019-05-03T17:53:02.683Z,27.10
2019-05-03T17:55:48.390Z,26.70
2019-05-03T17:58:35.262Z,27.20
2019-05-03T18:01:07.146Z,26.70
2019-05-03T18:03:46.035Z,27.00
2019-05-03T18:06:25.412Z,26.80
2019-05-03T18:09:10.978Z,26.30
2019-05-03T18:11:44.994Z,27.10
2019-05-03T18:14:12.277Z,26.50
2019-05-03T18:16:39.826Z,26.50
2019-05-03T18:19:07.536Z,26.30
2019-05-03T18:21:35.194Z,26.80
2019-05-03T18:24:04.783Z,26.70
2019-05-03T18:26:32.174Z,26.20
2019-05-03T18:28:59.880Z,26.30
2019-05-03T18:31:27.445Z,26.50
2019-05-03T18:33:55.135Z,26.50
2019-05-03T18:36:22.738Z,26.10
2019-05-03T18:38:50.347Z,25.70
2019-05-03T18:41:17.912Z,26.20
2019-05-03T18:43:50.290Z,26.60
2019-05-03T18:46:25.474Z,26.30
2019-05-03T18:48:55.034Z,26.60
2019-05-03T18:51:22.354Z,26.80
2019-05-03T18:53:49.975Z,27.00
2019-05-03T18:56:17.555Z,27.20
2019-05-03T18:58:45.154Z,27.50
2019-05-03T19:01:14.827Z,26.80
2019-05-03T19:03:45.111Z,26.80
2019-05-03T19:06:13.018Z,27.00
2019-05-03T19:08:42.209Z,27.20
2019-05-03T19:11:11.519Z,27.20
2019-05-03T19:13:41.603Z,27.20
2019-05-03T19:16:26.330Z,27.60
2019-05-03T19:18:55.011Z,27.50
2019-05-03T19:21:24.307Z,27.50
2019-05-03T19:23:51.971Z,27.60
2019-05-03T19:26:19.573Z,27.40
2019-05-03T19:28:47.130Z,27.70
2019-05-03T19:31:14.731Z,27.60
2019-05-03T19:33:42.312Z,27.50
2019-05-03T19:36:09.921Z,27.80
2019-05-03T19:38:37.599Z,28.00
2019-05-03T19:41:05.279Z,28.00
2019-05-03T19:43:35.316Z,27.80
2019-05-03T19:46:02.171Z,27.90
2019-05-03T19:48:29.733Z,27.80
2019-05-03T19:50:57.434Z,28.10
2019-05-03T19:53:52.435Z,28.30
2019-05-03T19:56:22.330Z,28.00
2019-05-03T19:58:51.205Z,28.40
2019-05-03T20:01:20.479Z,27.90
2019-05-03T20:03:49.735Z,27.90
2019-05-03T20:06:25.255Z,27.60
2019-05-03T20:09:10.019Z,28.50
2019-05-03T20:11:37.618Z,28.30
2019-05-03T20:14:05.281Z,28.10
2019-05-03T20:16:34.700Z,28.00
2019-05-03T20:19:16.733Z,28.40
2019-05-03T20:21:31.670Z,28.20
2019-05-03T20:23:59.246Z,29.00
2019-05-03T20:26:26.873Z,27.80
2019-05-03T20:28:55.318Z,28.40
2019-05-03T20:31:24.964Z,28.60
2019-05-03T20:33:52.532Z,28.40
2019-05-03T20:36:20.090Z,28.40
2019-05-03T20:38:47.701Z,27.90
2019-05-03T20:41:15.374Z,28.20
2019-05-03T20:43:47.301Z,28.40
2019-05-03T20:46:16.612Z,28.50
2019-05-03T20:48:45.777Z,28.60
2019-05-03T20:51:14.920Z,28.40
2019-05-03T20:53:44.764Z,27.80
2019-05-03T20:56:11.971Z,27.90
2019-05-03T20:58:39.608Z,28.10
2019-05-03T21:01:07.207Z,27.80
2019-05-03T21:03:34.801Z,27.90
2019-05-03T21:06:03.093Z,27.80
2019-05-03T21:08:31.778Z,28.20
2019-05-03T21:10:59.377Z,27.70
2019-05-03T21:13:39.075Z,27.70
2019-05-03T21:16:09.885Z,27.80
2019-05-03T21:18:39.134Z,27.70
2019-05-03T21:21:08.337Z,27.90
2019-05-03T21:23:55.372Z,27.50
2019-05-03T21:26:25.300Z,27.30
2019-05-03T21:28:52.487Z,27.00
2019-05-03T21:31:20.160Z,27.50
2019-05-03T21:33:47.786Z,27.50
2019-05-03T21:36:15.384Z,27.70
2019-05-03T21:38:44.439Z,27.80
2019-05-03T21:41:12.174Z,27.30
2019-05-03T21:43:39.786Z,27.90
2019-05-03T21:46:15.209Z,27.50
2019-05-03T21:48:56.566Z,27.70
2019-05-03T21:51:24.494Z,27.70
2019-05-03T21:53:52.271Z,27.70
2019-05-03T21:56:19.856Z,27.70
2019-05-03T21:58:47.429Z,27.20
2019-05-03T22:01:15.625Z,27.70
2019-05-03T22:03:44.783Z,27.50
2019-05-03T22:06:12.558Z,27.40
2019-05-03T22:08:40.142Z,27.10
2019-05-03T22:11:07.759Z,27.20
2019-05-03T22:13:36.283Z,27.50
2019-05-03T22:16:22.153Z,27.50
2019-05-03T22:18:49.750Z,27.30
2019-05-03T22:21:18.986Z,27.60
2019-05-03T22:24:00.286Z,27.40
2019-05-03T22:26:46.112Z,27.30
2019-05-03T22:29:14.410Z,27.30
2019-05-03T22:31:45.218Z,27.60
2019-05-03T22:34:12.552Z,27.60
2019-05-03T22:36:40.147Z,27.40
2019-05-03T22:39:07.710Z,27.40
2019-05-03T22:41:35.427Z,27.10
2019-05-03T22:44:03.354Z,27.20
2019-05-03T22:46:30.998Z,27.10
2019-05-03T22:48:58.594Z,27.40
2019-05-03T22:51:26.162Z,27.50
2019-05-03T22:53:55.248Z,27.50
2019-05-03T22:56:24.755Z,27.10
2019-05-03T22:58:54.736Z,26.90
2019-05-03T23:01:21.933Z,27.30
2019-05-03T23:03:50.501Z,27.50
2019-05-03T23:06:22.422Z,27.20
2019-05-03T23:08:47.374Z,27.60
2019-05-03T23:11:14.987Z,27.50
2019-05-03T23:13:44.491Z,27.40
2019-05-03T23:16:14.309Z,27.40
2019-05-03T23:18:41.632Z,27.10
2019-05-03T23:21:19.662Z,27.10
2019-05-03T23:23:51.610Z,27.80
2019-05-03T23:26:19.216Z,27.50
2019-05-03T23:28:46.800Z,27.20
2019-05-03T23:31:14.794Z,27.00
2019-05-03T23:33:42.550Z,27.90
2019-05-03T23:36:10.143Z,27.70
2019-05-03T23:38:37.695Z,27.60
2019-05-03T23:41:05.238Z,27.10
2019-05-03T23:43:32.832Z,27.70
2019-05-03T23:46:00.498Z,27.80
2019-05-03T23:48:28.070Z,27.30
2019-05-03T23:50:55.636Z,27.00
2019-05-03T23:53:23.254Z,27.30
2019-05-03T23:56:01.096Z,27.00
2019-05-03T23:58:28.684Z,27.20
